createdAt,value
2022-11-25T00:00:37.354Z,28.43
2022-11-25T00:03:26.905Z,27.23
2022-11-25T00:05:55.655Z,27.60
2022-11-25T00:08:25.199Z,27.33
2022-11-25T00:10:53.784Z,26.07
2022-11-25T00:13:22.888Z,26.37
2022-11-25T00:15:51.470Z,26.57
2022-11-25T00:18:20.092Z,29.60
2022-11-25T00:20:48.873Z,28.93
2022-11-25T00:23:17.376Z,29.83
2022-11-25T00:25:45.991Z,29.90
2022-11-25T00:28:14.814Z,30.10
2022-11-25T00:30:43.430Z,30.30
2022-11-25T00:33:12.050Z,30.40
2022-11-25T00:35:40.595Z,29.67
2022-11-25T00:38:09.367Z,31.97
2022-11-25T00:40:38.077Z,32.25
2022-11-25T00:43:28.642Z,32.80
2022-11-25T00:45:58.686Z,30.60
2022-11-25T00:48:28.519Z,32.53
2022-11-25T00:50:58.638Z,31.07
2022-11-25T00:53:27.314Z,32.67
2022-11-25T00:56:13.480Z,30.90
2022-11-25T00:58:43.475Z,30.67
2022-11-25T01:01:13.500Z,31.50
2022-11-25T01:03:42.831Z,27.50
2022-11-25T01:06:13.770Z,27.10
2022-11-25T01:08:42.661Z,27.97
2022-11-25T01:11:15.751Z,32.20
2022-11-25T01:13:45.123Z,29.57
2022-11-25T01:16:16.231Z,30.23
2022-11-25T01:18:45.280Z,29.00
2022-11-25T01:21:16.107Z,30.60
2022-11-25T01:23:49.825Z,27.00
2022-11-25T01:26:20.614Z,25.37
2022-11-25T01:28:53.660Z,26.00
2022-11-25T01:31:27.393Z,25.60
2022-11-25T01:33:59.404Z,26.57
2022-11-25T01:36:28.807Z,25.93
2022-11-25T01:38:59.302Z,26.53
2022-11-25T01:41:31.210Z,26.13
2022-11-25T01:44:12.815Z,25.57
2022-11-25T01:46:50.570Z,25.93
2022-11-25T01:49:25.163Z,28.23
2022-11-25T01:51:58.942Z,29.33
2022-11-25T01:54:33.759Z,30.47
2022-11-25T01:57:10.567Z,29.27
2022-11-25T01:59:44.599Z,29.87
2022-11-25T02:02:16.751Z,30.27
2022-11-25T02:04:50.328Z,30.43
2022-11-25T02:07:29.610Z,28.30
2022-11-25T02:10:00.476Z,28.50
2022-11-25T02:12:29.996Z,28.80
2022-11-25T02:15:00.821Z,29.07
2022-11-25T02:17:32.926Z,30.30
2022-11-25T02:20:05.348Z,28.93
2022-11-25T02:22:47.010Z,29.30
2022-11-25T02:25:19.726Z,31.13
2022-11-25T02:27:53.039Z,30.93
2022-11-25T02:30:21.826Z,36.60
2022-11-25T02:32:55.456Z,32.80
2022-11-25T02:35:39.395Z,31.23
2022-11-25T02:38:14.820Z,29.43
2022-11-25T02:40:48.787Z,30.57
2022-11-25T02:43:17.956Z,30.77
2022-11-25T02:45:56.559Z,30.37
2022-11-25T02:49:07.438Z,30.20
2022-11-25T02:51:30.628Z,31.40
2022-11-25T02:54:02.132Z,34.13
2022-11-25T02:56:37.816Z,35.40
2022-11-25T02:59:10.876Z,32.87
2022-11-25T03:01:40.136Z,31.93
2022-11-25T03:04:12.830Z,32.13
2022-11-25T03:06:41.372Z,31.40
2022-11-25T03:09:12.286Z,32.37
2022-11-25T03:11:59.724Z,31.87
2022-11-25T03:14:28.714Z,33.07
2022-11-25T03:16:57.312Z,35.53
2022-11-25T03:19:27.585Z,33.57
2022-11-25T03:21:56.168Z,32.70
2022-11-25T03:24:28.057Z,31.83
2022-11-25T03:26:56.709Z,34.77
2022-11-25T03:29:26.011Z,31.60
2022-11-25T03:31:55.052Z,33.83
2022-11-25T03:34:24.896Z,33.27
2022-11-25T03:36:53.839Z,33.90
2022-11-25T03:39:28.016Z,33.47
2022-11-25T03:41:57.531Z,33.27
2022-11-25T03:44:30.009Z,34.20
2022-11-25T03:46:59.113Z,36.23
2022-11-25T03:49:30.085Z,34.77
2022-11-25T03:51:59.017Z,33.53
2022-11-25T03:54:30.845Z,32.80
2022-11-25T03:57:21.427Z,34.33
2022-11-25T03:59:50.219Z,33.93
2022-11-25T04:02:19.365Z,33.27
2022-11-25T04:04:48.891Z,34.13
2022-11-25T04:07:21.359Z,31.60
2022-11-25T04:09:50.304Z,31.53
2022-11-25T04:12:39.441Z,31.97
2022-11-25T04:15:18.607Z,30.60
2022-11-25T04:17:54.237Z,32.40
2022-11-25T04:20:22.953Z,32.87
2022-11-25T04:22:56.962Z,31.95
2022-11-25T04:25:29.993Z,30.17
2022-11-25T04:28:00.466Z,29.40
2022-11-25T04:30:36.719Z,28.37
2022-11-25T04:33:09.022Z,28.53
2022-11-25T04:35:37.580Z,29.60
2022-11-25T04:38:11.377Z,29.13
2022-11-25T04:40:43.750Z,27.83
2022-11-25T04:43:22.290Z,30.70
2022-11-25T04:46:37.292Z,30.67
2022-11-25T04:49:06.329Z,26.40
2022-11-25T04:51:35.289Z,27.37
2022-11-25T04:54:06.851Z,25.53
2022-11-25T04:56:36.603Z,27.20
2022-11-25T04:59:24.789Z,27.13
2022-11-25T05:01:55.208Z,28.23
2022-11-25T05:04:37.055Z,27.80
2022-11-25T05:07:05.795Z,28.97
2022-11-25T05:09:35.564Z,34.37
2022-11-25T05:12:12.249Z,33.63
2022-11-25T05:14:43.682Z,29.87
2022-11-25T05:17:16.840Z,29.05
2022-11-25T05:19:50.052Z,28.13
2022-11-25T05:22:21.812Z,29.45
2022-11-25T05:24:50.599Z,31.45
2022-11-25T05:27:21.918Z,30.43
2022-11-25T05:29:56.448Z,28.60
2022-11-25T05:32:28.467Z,29.00
2022-11-25T05:34:59.435Z,31.77
2022-11-25T05:37:33.239Z,32.23
2022-11-25T05:40:07.988Z,31.00
2022-11-25T05:42:55.865Z,27.40
2022-11-25T05:45:27.761Z,30.53
2022-11-25T05:47:57.388Z,30.00
2022-11-25T05:50:29.259Z,31.00
2022-11-25T05:53:19.035Z,29.20
2022-11-25T05:55:59.920Z,29.70
2022-11-25T05:58:54.195Z,31.33
2022-11-25T06:01:40.310Z,33.50
2022-11-25T06:04:14.096Z,29.60
2022-11-25T06:06:43.413Z,30.40
2022-11-25T06:09:12.701Z,30.03
2022-11-25T06:11:43.861Z,30.47
2022-11-25T06:14:12.393Z,29.93
2022-11-25T06:16:45.437Z,27.97
2022-11-25T06:19:26.761Z,27.43
2022-11-25T06:21:55.599Z,28.15
2022-11-25T06:24:27.217Z,29.47
2022-11-25T06:27:03.012Z,30.40
2022-11-25T06:29:31.598Z,29.57
2022-11-25T06:32:06.551Z,29.40
2022-11-25T06:35:01.117Z,31.50
2022-11-25T06:37:41.339Z,31.77
2022-11-25T06:40:11.565Z,30.90
2022-11-25T06:42:42.947Z,30.70
2022-11-25T06:45:12.033Z,32.13
2022-11-25T06:47:40.605Z,36.30
2022-11-25T06:50:10.323Z,33.53
2022-11-25T06:52:38.949Z,34.37
2022-11-25T06:55:11.738Z,36.17
2022-11-25T06:57:40.383Z,38.77
2022-11-25T07:00:10.502Z,50.63
2022-11-25T07:02:44.103Z,44.17
2022-11-25T07:05:15.783Z,41.20
2022-11-25T07:07:45.036Z,44.57
2022-11-25T07:10:14.402Z,40.80
2022-11-25T07:12:43.121Z,37.80
2022-11-25T07:15:12.369Z,35.43
2022-11-25T07:17:40.977Z,29.63
2022-11-25T07:20:11.087Z,32.53
2022-11-25T07:22:39.786Z,31.83
2022-11-25T07:25:09.817Z,33.83
2022-11-25T07:27:38.639Z,32.97
2022-11-25T07:31:09.464Z,33.57
2022-11-25T07:32:58.780Z,30.67
2022-11-25T07:35:27.655Z,33.50
2022-11-25T07:37:56.422Z,33.40
2022-11-25T07:40:26.088Z,35.93
2022-11-25T07:42:57.932Z,31.80
2022-11-25T07:45:28.966Z,33.07
2022-11-25T07:48:08.520Z,36.00
2022-11-25T07:50:37.908Z,35.37
2022-11-25T07:53:06.575Z,35.67
2022-11-25T07:55:35.298Z,33.90
2022-11-25T07:58:04.930Z,35.43
2022-11-25T08:00:36.421Z,35.03
2022-11-25T08:03:05.201Z,34.67
2022-11-25T08:05:34.209Z,38.10
2022-11-25T08:08:05.140Z,35.13
2022-11-25T08:10:33.958Z,35.10
2022-11-25T08:13:03.688Z,37.70
2022-11-25T08:15:33.645Z,36.60
2022-11-25T08:18:03.493Z,35.27
2022-11-25T08:20:32.087Z,35.90
2022-11-25T08:23:00.845Z,35.23
2022-11-25T08:25:31.335Z,35.13
2022-11-25T08:28:00.682Z,33.23
2022-11-25T08:30:29.467Z,33.60
2022-11-25T08:32:58.986Z,33.20
2022-11-25T08:35:28.320Z,34.07
2022-11-25T08:37:57.382Z,31.63
2022-11-25T08:40:26.953Z,33.53
2022-11-25T08:42:55.907Z,34.23
2022-11-25T08:45:27.754Z,35.00
2022-11-25T08:47:59.213Z,33.50
2022-11-25T08:50:28.928Z,32.40
2022-11-25T08:52:58.336Z,32.87
2022-11-25T08:55:28.052Z,33.67
2022-11-25T08:57:56.804Z,32.37
2022-11-25T09:00:28.482Z,33.60
2022-11-25T09:02:57.341Z,34.33
2022-11-25T09:05:28.076Z,33.40
2022-11-25T09:07:59.462Z,33.67
2022-11-25T09:10:29.374Z,33.67
2022-11-25T09:12:59.800Z,39.20
2022-11-25T09:15:29.117Z,46.27
2022-11-25T09:18:01.897Z,34.13
2022-11-25T09:20:30.899Z,33.00
2022-11-25T09:23:00.631Z,37.47
2022-11-25T09:25:30.269Z,33.07
2022-11-25T09:27:59.079Z,31.33
2022-11-25T09:30:30.232Z,34.90
2022-11-25T09:33:00.085Z,32.93
2022-11-25T09:35:28.859Z,32.40
2022-11-25T09:37:57.597Z,32.20
2022-11-25T09:40:36.217Z,32.35
2022-11-25T09:43:36.610Z,30.70
2022-11-25T09:46:33.759Z,32.77
2022-11-25T09:49:24.419Z,31.87
2022-11-25T09:52:03.162Z,32.37
2022-11-25T09:54:36.721Z,35.00
2022-11-25T09:57:43.805Z,32.95
2022-11-25T10:00:15.976Z,30.63
2022-11-25T10:02:59.932Z,32.70
2022-11-25T10:05:36.893Z,31.10
2022-11-25T10:08:16.008Z,30.67
2022-11-25T10:10:48.013Z,29.83
2022-11-25T10:13:21.968Z,31.60
2022-11-25T10:15:52.239Z,31.40
2022-11-25T10:18:31.522Z,30.97
2022-11-25T10:21:00.305Z,30.50
2022-11-25T10:23:33.693Z,31.83
2022-11-25T10:26:13.550Z,30.65
2022-11-25T10:28:52.627Z,30.37
2022-11-25T10:31:25.744Z,28.10
2022-11-25T10:34:00.283Z,29.33
2022-11-25T10:36:39.608Z,27.27
2022-11-25T10:39:13.303Z,29.73
2022-11-25T10:41:52.177Z,30.80
2022-11-25T10:44:27.395Z,29.03
2022-11-25T10:47:14.020Z,29.97
2022-11-25T10:49:54.544Z,31.53
2022-11-25T10:52:27.638Z,29.53
2022-11-25T10:54:58.950Z,30.80
2022-11-25T10:57:30.856Z,31.33
2022-11-25T11:00:00.786Z,29.37
2022-11-25T11:02:39.944Z,34.00
2022-11-25T11:05:23.055Z,49.20
2022-11-25T11:08:17.515Z,32.43
2022-11-25T11:11:04.454Z,29.20
2022-11-25T11:13:33.459Z,29.27
2022-11-25T11:16:02.550Z,30.23
2022-11-25T11:18:41.813Z,31.67
2022-11-25T11:21:24.983Z,31.10
2022-11-25T11:23:56.986Z,30.43
2022-11-25T11:26:28.112Z,30.40
2022-11-25T11:29:02.730Z,28.87
2022-11-25T11:31:39.678Z,30.40
2022-11-25T11:34:36.864Z,31.57
2022-11-25T11:37:25.054Z,30.27
2022-11-25T11:40:17.778Z,31.50
2022-11-25T11:42:57.774Z,30.00
2022-11-25T11:45:44.594Z,31.93
2022-11-25T11:48:23.890Z,31.77
2022-11-25T11:51:00.488Z,31.27
2022-11-25T11:53:36.731Z,32.77
2022-11-25T11:56:34.114Z,33.70
2022-11-25T11:59:30.271Z,35.00
2022-11-25T12:02:16.319Z,34.73
2022-11-25T12:04:51.219Z,32.77
2022-11-25T12:07:24.177Z,34.37
2022-11-25T12:09:57.646Z,39.00
2022-11-25T12:12:34.446Z,44.23
2022-11-25T12:15:12.498Z,45.67
2022-11-25T12:17:46.605Z,44.13
2022-11-25T12:22:55.442Z,44.03
2022-11-25T12:25:27.588Z,41.17
2022-11-25T12:28:01.758Z,39.50
2022-11-25T12:30:40.825Z,36.17
2022-11-25T12:33:17.633Z,35.55
2022-11-25T12:35:58.533Z,37.83
2022-11-25T12:38:37.886Z,35.93
2022-11-25T12:41:16.268Z,36.93
2022-11-25T12:43:49.793Z,38.17
2022-11-25T12:46:29.342Z,39.60
2022-11-25T12:48:59.661Z,40.17
2022-11-25T12:51:53.936Z,39.30
2022-11-25T12:54:44.647Z,38.92
2022-11-25T12:57:37.342Z,37.50
2022-11-25T13:00:40.468Z,36.63
2022-11-25T13:03:34.840Z,38.83
2022-11-25T13:06:24.480Z,39.50
2022-11-25T13:09:01.132Z,38.70
2022-11-25T13:11:50.605Z,39.63
2022-11-25T13:14:32.323Z,40.37
2022-11-25T13:17:02.223Z,43.40
2022-11-25T13:19:36.425Z,42.03
2022-11-25T13:22:29.207Z,41.65
2022-11-25T13:24:58.684Z,42.73
2022-11-25T13:27:32.142Z,41.33
2022-11-25T13:30:01.789Z,40.60
2022-11-25T13:32:40.661Z,40.17
2022-11-25T13:35:36.336Z,37.03
2022-11-25T13:38:30.294Z,39.83
2022-11-25T13:41:00.910Z,40.43
2022-11-25T13:43:29.731Z,38.90
2022-11-25T13:45:58.620Z,39.17
2022-11-25T13:48:30.204Z,39.57
2022-11-25T13:51:18.490Z,39.23
2022-11-25T13:53:53.759Z,38.00
2022-11-25T13:56:29.576Z,40.17
2022-11-25T13:59:34.185Z,42.67
2022-11-25T14:02:35.972Z,43.02
2022-11-25T14:05:18.345Z,45.50
2022-11-25T14:07:56.905Z,43.50
2022-11-25T14:10:45.286Z,44.77
2022-11-25T14:13:33.214Z,44.17
2022-11-25T14:16:12.986Z,44.87
2022-11-25T14:19:35.033Z,42.13
2022-11-25T14:22:35.154Z,41.13
2022-11-25T14:25:15.797Z,44.77
2022-11-25T14:27:48.911Z,43.97
2022-11-25T14:30:18.729Z,48.43
2022-11-25T14:32:53.072Z,47.70
2022-11-25T14:35:28.310Z,43.43
2022-11-25T14:38:04.421Z,41.73
2022-11-25T14:40:44.508Z,40.10
2022-11-25T14:43:19.107Z,38.37
2022-11-25T14:45:47.851Z,38.53
2022-11-25T14:48:18.614Z,66.20
2022-11-25T14:50:59.281Z,67.00
2022-11-25T14:53:39.847Z,53.50
2022-11-25T14:56:11.273Z,48.90
2022-11-25T14:58:44.236Z,43.63
2022-11-25T15:01:20.340Z,41.73
2022-11-25T15:03:50.476Z,38.70
2022-11-25T15:06:20.711Z,41.07
2022-11-25T15:08:58.216Z,43.67
2022-11-25T15:11:31.357Z,40.17
2022-11-25T15:14:04.800Z,39.73
2022-11-25T15:16:47.211Z,40.80
2022-11-25T15:19:19.991Z,44.20
2022-11-25T15:24:54.449Z,42.63
2022-11-25T15:27:27.184Z,41.35
2022-11-25T15:29:58.446Z,42.47
2022-11-25T15:32:29.700Z,41.65
2022-11-25T15:35:01.722Z,40.97
2022-11-25T15:37:31.259Z,42.77
2022-11-25T15:40:33.452Z,43.63
2022-11-25T15:43:21.073Z,38.60
2022-11-25T15:45:57.303Z,39.23
2022-11-25T15:48:29.823Z,43.00
2022-11-25T15:51:03.872Z,39.20
2022-11-25T15:53:37.246Z,40.53
2022-11-25T15:56:14.295Z,42.87
2022-11-25T15:58:43.603Z,37.73
2022-11-25T16:01:28.139Z,42.50
2022-11-25T16:06:54.040Z,39.63
2022-11-25T16:09:27.322Z,38.80
2022-11-25T16:12:06.224Z,42.67
2022-11-25T16:14:38.423Z,38.97
2022-11-25T16:17:14.443Z,39.23
2022-11-25T16:19:46.941Z,40.27
2022-11-25T16:22:18.773Z,40.43
2022-11-25T16:24:55.950Z,43.77
2022-11-25T16:27:29.362Z,46.03
2022-11-25T16:30:16.879Z,43.70
2022-11-25T16:32:45.905Z,44.13
2022-11-25T16:35:20.131Z,48.97
2022-11-25T16:37:49.701Z,45.13
2022-11-25T16:40:19.533Z,47.80
2022-11-25T16:42:50.216Z,50.07
2022-11-25T16:45:21.990Z,52.23
2022-11-25T16:47:53.872Z,56.83
2022-11-25T16:50:22.976Z,56.65
2022-11-25T16:52:51.887Z,51.63
2022-11-25T16:55:21.107Z,53.37
2022-11-25T16:57:50.091Z,57.47
2022-11-25T17:00:19.534Z,65.07
2022-11-25T17:02:49.185Z,65.40
2022-11-25T17:05:20.718Z,71.47
2022-11-25T17:07:50.630Z,67.17
2022-11-25T17:10:21.053Z,62.10
2022-11-25T17:12:50.412Z,55.10
2022-11-25T17:15:24.062Z,52.63
2022-11-25T17:17:53.470Z,51.70
2022-11-25T17:20:24.919Z,57.27
2022-11-25T17:22:57.726Z,54.17
2022-11-25T17:25:35.304Z,50.60
2022-11-25T17:28:10.333Z,47.33
2022-11-25T17:30:40.359Z,46.30
2022-11-25T17:33:14.928Z,50.13
2022-11-25T17:35:44.867Z,49.17
2022-11-25T17:38:16.613Z,51.47
2022-11-25T17:40:46.277Z,50.57
2022-11-25T17:43:16.442Z,53.83
2022-11-25T17:45:45.875Z,58.43
2022-11-25T17:48:17.996Z,56.23
2022-11-25T17:50:46.694Z,54.70
2022-11-25T17:53:15.227Z,51.00
2022-11-25T17:55:43.871Z,51.27
2022-11-25T17:58:18.648Z,51.10
2022-11-25T18:00:48.877Z,51.70
2022-11-25T18:03:18.221Z,52.97
2022-11-25T18:05:47.169Z,52.63
2022-11-25T18:08:19.682Z,56.20
2022-11-25T18:10:49.840Z,54.77
2022-11-25T18:13:22.574Z,56.07
2022-11-25T18:15:51.256Z,54.10
2022-11-25T18:18:24.609Z,54.23
2022-11-25T18:20:53.725Z,55.77
2022-11-25T18:23:23.923Z,53.80
2022-11-25T18:25:54.413Z,55.33
2022-11-25T18:28:28.809Z,54.90
2022-11-25T18:31:02.213Z,55.17
2022-11-25T18:33:33.268Z,56.47
2022-11-25T18:36:02.974Z,54.63
2022-11-25T18:38:31.659Z,56.47
2022-11-25T18:41:01.897Z,60.57
2022-11-25T18:43:34.284Z,59.43
2022-11-25T18:46:03.016Z,62.40
2022-11-25T18:48:31.768Z,56.80
2022-11-25T18:51:00.443Z,61.67
2022-11-25T18:53:30.292Z,57.37
2022-11-25T18:55:59.609Z,58.90
2022-11-25T18:58:32.228Z,64.37
2022-11-25T19:01:05.946Z,61.00
2022-11-25T19:03:34.699Z,65.55
2022-11-25T19:06:06.278Z,63.97
2022-11-25T19:08:34.892Z,62.03
2022-11-25T19:11:09.142Z,65.53
2022-11-25T19:13:38.032Z,63.33
2022-11-25T19:16:12.655Z,69.20
2022-11-25T19:18:43.627Z,80.33
2022-11-25T19:21:17.709Z,70.37
2022-11-25T19:23:53.428Z,68.10
2022-11-25T19:26:29.121Z,66.20
2022-11-25T19:29:03.063Z,62.23
2022-11-25T19:31:33.565Z,60.30
2022-11-25T19:34:22.639Z,59.57
2022-11-25T19:36:54.855Z,62.13
2022-11-25T19:39:24.150Z,57.53
2022-11-25T19:41:54.898Z,59.57
2022-11-25T19:44:25.626Z,60.00
2022-11-25T19:47:14.864Z,61.02
2022-11-25T19:49:45.479Z,59.60
2022-11-25T19:52:16.710Z,61.53
2022-11-25T19:54:45.308Z,59.67
2022-11-25T19:57:16.830Z,61.03
2022-11-25T19:59:45.886Z,62.27
2022-11-25T20:02:20.297Z,62.47
2022-11-25T20:04:56.224Z,63.80
2022-11-25T20:07:29.561Z,62.27
2022-11-25T20:10:15.446Z,61.87
2022-11-25T20:12:44.232Z,60.93
2022-11-25T20:15:12.901Z,59.90
2022-11-25T20:17:44.705Z,61.60
2022-11-25T20:20:17.421Z,61.33
2022-11-25T20:22:54.683Z,61.40
2022-11-25T20:25:23.983Z,61.80
2022-11-25T20:27:53.372Z,62.20
2022-11-25T20:30:24.006Z,60.13
2022-11-25T20:32:55.662Z,58.67
2022-11-25T20:35:25.782Z,61.13
2022-11-25T20:38:00.028Z,60.40
2022-11-25T20:40:41.977Z,63.27
2022-11-25T20:43:22.750Z,63.07
2022-11-25T20:45:51.649Z,58.75
2022-11-25T20:48:22.857Z,59.57
2022-11-25T20:50:54.689Z,64.67
2022-11-25T20:53:23.347Z,61.73
2022-11-25T20:55:52.144Z,62.43
2022-11-25T20:58:23.198Z,62.77
2022-11-25T21:00:57.783Z,66.10
2022-11-25T21:03:30.524Z,61.10
2022-11-25T21:06:03.279Z,61.25
2022-11-25T21:08:31.960Z,61.53
2022-11-25T21:11:00.644Z,59.67
2022-11-25T21:13:30.713Z,57.20
2022-11-25T21:15:59.526Z,65.93
2022-11-25T21:18:28.758Z,58.20
2022-11-25T21:21:01.897Z,57.90
2022-11-25T21:23:34.947Z,64.77
2022-11-25T21:26:10.639Z,63.53
2022-11-25T21:28:43.190Z,61.47
2022-11-25T21:31:16.451Z,59.43
2022-11-25T21:33:47.901Z,59.40
2022-11-25T21:36:19.923Z,61.37
2022-11-25T21:38:57.765Z,57.30
2022-11-25T21:41:27.689Z,65.23
2022-11-25T21:43:56.486Z,65.63
2022-11-25T21:46:25.252Z,63.07
2022-11-25T21:48:55.410Z,64.53
2022-11-25T21:51:25.295Z,71.20
2022-11-25T21:53:54.315Z,65.43
2022-11-25T21:56:28.045Z,69.53
2022-11-25T21:58:59.172Z,61.75
2022-11-25T22:01:30.289Z,61.10
2022-11-25T22:03:59.017Z,64.73
2022-11-25T22:06:38.320Z,61.97
2022-11-25T22:09:06.962Z,60.07
2022-11-25T22:11:39.123Z,63.93
2022-11-25T22:14:18.241Z,60.33
2022-11-25T22:16:47.567Z,59.85
2022-11-25T22:19:29.470Z,58.73
2022-11-25T22:21:58.649Z,62.57
2022-11-25T22:24:32.334Z,65.80
2022-11-25T22:27:03.154Z,66.93
2022-11-25T22:29:35.900Z,64.63
2022-11-25T22:32:08.338Z,63.33
2022-11-25T22:34:41.692Z,58.73
2022-11-25T22:37:18.603Z,67.77
2022-11-25T22:39:47.628Z,66.60
2022-11-25T22:42:22.700Z,66.27
2022-11-25T22:44:53.638Z,64.33
2022-11-25T22:47:28.153Z,70.13
2022-11-25T22:49:57.011Z,70.70
2022-11-25T22:52:28.845Z,69.30
2022-11-25T22:54:59.547Z,70.63
2022-11-25T22:57:29.900Z,70.40
2022-11-25T22:59:58.542Z,71.33
2022-11-25T23:02:33.840Z,67.27
2022-11-25T23:05:07.183Z,70.03
2022-11-25T23:07:36.003Z,67.60
2022-11-25T23:10:13.695Z,70.03
2022-11-25T23:12:43.099Z,66.43
2022-11-25T23:15:15.867Z,66.03
2022-11-25T23:17:49.694Z,62.20
2022-11-25T23:20:23.192Z,63.45
2022-11-25T23:22:52.283Z,67.67
2022-11-25T23:25:24.299Z,72.43
2022-11-25T23:27:53.003Z,67.90
2022-11-25T23:30:23.193Z,71.13
2022-11-25T23:32:54.084Z,68.47
2022-11-25T23:35:29.156Z,71.63
2022-11-25T23:37:58.966Z,69.13
2022-11-25T23:40:31.497Z,70.50
2022-11-25T23:43:00.438Z,70.47
2022-11-25T23:45:31.983Z,66.73
2022-11-25T23:48:05.239Z,65.80
2022-11-25T23:50:34.839Z,69.63
2022-11-25T23:53:11.282Z,67.30
2022-11-25T23:55:39.949Z,66.50
2022-11-25T23:58:16.358Z,67.87
